Time;durP1;ratioP1;P1;durP2;ratioP2;P2;SDS_P1;SDS_P2;PMS_P1;PMS_P2;Temp;Humidity;BMP_temperature;BMP_pressure;BME280_temperature;BME280_humidity;BME280_pressure;Samples;Min_cycle;Max_cycle;Signal;HPM_P1;HPM_P2
2022/04/15 00:02:07;;;;;;;8.10;7.53;;;16.10;67.30;;;;;;5136870;27;20453;-59
2022/04/15 00:04:35;;;;;;;8.03;7.47;;;16.10;67.30;;;;;;5136863;27;20527;-59
2022/04/15 00:07:03;;;;;;;7.87;7.47;;;16.10;67.40;;;;;;5136788;27;20449;-59
2022/04/15 00:09:31;;;;;;;8.70;8.10;;;16.10;67.30;;;;;;5136829;27;20820;-59
2022/04/15 00:12:00;;;;;;;8.40;7.80;;;16.10;67.50;;;;;;5136607;27;20447;-59
2022/04/15 00:14:27;;;;;;;8.33;7.90;;;16.10;67.40;;;;;;5135263;27;20480;-59
2022/04/15 00:16:54;;;;;;;8.13;7.73;;;16.10;67.40;;;;;;5136615;27;20449;-59
2022/04/15 00:19:23;;;;;;;9.07;8.37;;;16.10;67.50;;;;;;5136820;27;20458;-58
2022/04/15 00:21:50;;;;;;;8.93;8.33;;;16.10;67.40;;;;;;5136450;27;20455;-59
2022/04/15 00:24:17;;;;;;;9.27;8.57;;;16.10;67.40;;;;;;5135970;27;20447;-59
2022/04/15 00:26:44;;;;;;;8.50;8.00;;;16.20;67.30;;;;;;5136169;27;20446;-59
2022/04/15 00:29:11;;;;;;;8.00;7.60;;;16.20;67.20;;;;;;5135084;27;20521;-59
2022/04/15 00:31:37;;;;;;;9.17;8.47;;;16.20;67.30;;;;;;5136340;27;20305;-59
2022/04/15 00:34:04;;;;;;;8.93;8.37;;;16.20;67.30;;;;;;5136198;27;20833;-59
2022/04/15 00:36:32;;;;;;;8.77;8.07;;;16.20;67.20;;;;;;5136209;27;20823;-58
2022/04/15 00:38:59;;;;;;;8.67;8.07;;;16.20;67.20;;;;;;5136130;27;20798;-59
2022/04/15 00:41:42;;;;;;;8.90;8.30;;;16.20;67.30;;;;;;5136297;27;20882;-59
2022/04/15 00:44:08;;;;;;;8.70;8.20;;;16.10;67.30;;;;;;5131993;27;20460;-59
2022/04/15 00:46:35;;;;;;;9.10;8.60;;;16.10;67.40;;;;;;5135920;27;20464;-59
2022/04/15 00:49:02;;;;;;;9.13;8.53;;;16.10;67.50;;;;;;5136058;27;20447;-59
2022/04/15 00:51:29;;;;;;;9.53;8.83;;;16.00;67.70;;;;;;5135923;27;20835;-59
2022/04/15 00:54:02;;;;;;;8.93;8.33;;;16.00;67.60;;;;;;5135863;27;20943;-59
2022/04/15 00:56:34;;;;;;;9.20;8.47;;;16.00;67.60;;;;;;5135633;27;20459;-59
2022/04/15 00:59:02;;;;;;;9.10;8.50;;;16.00;67.60;;;;;;5134396;27;20451;-58
2022/04/15 01:01:29;;;;;;;9.30;8.60;;;16.00;67.60;;;;;;5135629;27;20483;-59
2022/04/15 01:03:57;;;;;;;8.77;8.17;;;16.10;67.60;;;;;;5135768;27;20479;-59
2022/04/15 01:06:29;;;;;;;9.40;8.80;;;16.10;67.80;;;;;;5135618;27;20798;-58
2022/04/15 01:09:00;;;;;;;9.23;8.43;;;16.10;67.70;;;;;;5135674;27;20228;-59
2022/04/15 01:11:29;;;;;;;9.60;8.90;;;16.10;67.70;;;;;;5135491;27;20471;-59
2022/04/15 01:13:59;;;;;;;8.70;8.17;;;16.10;67.70;;;;;;5133969;27;20455;-59
2022/04/15 01:16:27;;;;;;;9.30;8.70;;;16.10;67.70;;;;;;5135529;27;20919;-58
2022/04/15 01:18:53;;;;;;;8.77;8.25;;;16.10;67.80;;;;;;5135486;27;20445;-59
2022/04/15 01:21:24;;;;;;;8.40;7.90;;;16.10;68.00;;;;;;5135429;27;20203;-59
2022/04/15 01:23:53;;;;;;;8.60;8.10;;;16.10;68.20;;;;;;5135286;27;20535;-59
2022/04/15 01:26:20;;;;;;;8.67;8.17;;;16.00;68.30;;;;;;5134951;27;20453;-58
2022/04/15 01:28:47;;;;;;;9.37;8.77;;;16.00;68.30;;;;;;5133955;27;20484;-59
2022/04/15 01:31:14;;;;;;;9.43;8.73;;;16.10;68.20;;;;;;5135222;27;20484;-59
2022/04/15 01:33:40;;;;;;;8.40;7.90;;;16.00;68.50;;;;;;5135169;27;20939;-59
2022/04/15 01:36:07;;;;;;;9.07;8.37;;;16.00;68.40;;;;;;5134024;27;20492;-59
2022/04/15 01:38:34;;;;;;;9.40;8.70;;;16.10;68.30;;;;;;5135114;27;20454;-58
2022/04/15 01:41:03;;;;;;;9.27;8.63;;;16.10;68.40;;;;;;5134893;27;20539;-59
2022/04/15 01:43:29;;;;;;;9.60;8.90;;;16.10;68.20;;;;;;5133523;27;20449;-59
2022/04/15 01:45:56;;;;;;;9.27;8.53;;;16.10;68.30;;;;;;5134815;27;20828;-58
2022/04/15 01:48:23;;;;;;;9.67;8.77;;;16.00;68.30;;;;;;5134807;27;20468;-59
2022/04/15 01:50:50;;;;;;;8.63;8.03;;;16.00;68.30;;;;;;5134701;27;20449;-58
2022/04/15 01:53:17;;;;;;;9.05;8.45;;;16.00;68.40;;;;;;5134789;27;20864;-58
2022/04/15 01:55:44;;;;;;;9.40;8.80;;;16.00;68.40;;;;;;5134509;27;20236;-59
2022/04/15 01:58:12;;;;;;;8.80;8.10;;;16.00;68.30;;;;;;5133287;27;20452;-59
2022/04/15 02:00:39;;;;;;;9.30;8.70;;;16.00;68.30;;;;;;5134581;27;20777;-58
2022/04/15 02:03:06;;;;;;;10.20;9.30;;;16.00;68.30;;;;;;5134594;27;20680;-59
2022/04/15 02:05:33;;;;;;;9.73;8.80;;;16.00;68.30;;;;;;5134560;27;20444;-58
2022/04/15 02:07:59;;;;;;;9.73;9.07;;;16.00;68.50;;;;;;5134436;27;20458;-59
2022/04/15 02:10:26;;;;;;;9.03;8.43;;;16.00;68.40;;;;;;5134460;27;20444;-58
2022/04/15 02:12:53;;;;;;;9.80;8.93;;;16.00;68.60;;;;;;5134211;27;20535;-59
2022/04/15 02:15:21;;;;;;;9.98;9.18;;;16.00;68.60;;;;;;5133170;27;20506;-59
2022/04/15 02:17:48;;;;;;;9.98;9.18;;;16.00;68.50;;;;;;5134394;27;20209;-58
2022/04/15 02:20:15;;;;;;;10.00;9.20;;;16.00;68.50;;;;;;5134319;27;20201;-58
2022/04/15 02:22:42;;;;;;;9.40;8.80;;;15.90;68.50;;;;;;5134161;27;20447;-58
2022/04/15 02:25:10;;;;;;;9.73;9.13;;;15.90;68.70;;;;;;5134139;27;20440;-58
2022/04/15 02:27:36;;;;;;;10.40;9.63;;;15.90;68.70;;;;;;5134103;27;20532;-58
2022/04/15 02:30:04;;;;;;;9.87;9.17;;;15.90;68.80;;;;;;5132874;27;20870;-58
2022/04/15 02:32:32;;;;;;;9.53;8.93;;;15.80;68.70;;;;;;5134046;27;20923;-59
2022/04/15 02:34:59;;;;;;;9.90;9.10;;;15.90;68.80;;;;;;5133971;27;20484;-58
2022/04/15 02:37:26;;;;;;;9.43;8.70;;;15.80;68.90;;;;;;5133870;27;20440;-58
2022/04/15 02:39:53;;;;;;;9.73;9.13;;;15.80;69.00;;;;;;5133960;27;20293;-59
2022/04/15 02:42:20;;;;;;;9.60;8.90;;;15.80;69.00;;;;;;5133891;27;20479;-59
2022/04/15 02:44:46;;;;;;;10.50;9.47;;;15.80;69.10;;;;;;5132666;27;20250;-59
2022/04/15 02:47:13;;;;;;;9.00;8.40;;;15.70;69.20;;;;;;5133738;27;20444;-58
2022/04/15 02:49:42;;;;;;;9.90;9.10;;;15.70;69.30;;;;;;5133966;27;20445;-59
2022/04/15 02:52:09;;;;;;;9.40;8.73;;;15.70;69.30;;;;;;5133701;27;20476;-58
2022/04/15 02:54:36;;;;;;;10.13;9.40;;;15.80;69.20;;;;;;5133880;27;20480;-59
2022/04/15 02:57:03;;;;;;;9.57;8.87;;;15.80;69.10;;;;;;5133725;27;20285;-59
2022/04/15 02:59:30;;;;;;;9.40;8.73;;;15.80;68.90;;;;;;5132450;27;20452;-58
2022/04/15 03:01:57;;;;;;;10.20;9.40;;;15.80;68.90;;;;;;5133726;27;20453;-58
2022/04/15 03:04:24;;;;;;;9.90;9.20;;;15.80;68.80;;;;;;5133784;27;20468;-59
2022/04/15 03:06:52;;;;;;;10.50;9.80;;;15.80;68.90;;;;;;5133735;27;20444;-59
2022/04/15 03:09:21;;;;;;;9.97;9.20;;;15.80;68.90;;;;;;5133774;27;20683;-59
2022/04/15 03:11:48;;;;;;;9.52;8.73;;;15.80;69.00;;;;;;5133524;27;20802;-59
2022/04/15 03:14:17;;;;;;;10.10;9.33;;;15.70;69.00;;;;;;5132399;27;20745;-58
2022/04/15 03:16:44;;;;;;;9.50;8.87;;;15.70;69.00;;;;;;5133595;27;20584;-59
2022/04/15 03:19:11;;;;;;;9.80;9.13;;;15.70;69.10;;;;;;5133645;27;20449;-59
2022/04/15 03:21:38;;;;;;;9.10;8.40;;;15.70;69.10;;;;;;5133685;27;20444;-59
2022/04/15 03:24:07;;;;;;;9.17;8.60;;;15.70;69.10;;;;;;5133515;27;21071;-58
2022/04/15 03:26:34;;;;;;;9.03;8.40;;;15.70;69.10;;;;;;5133358;27;20931;-58
2022/04/15 03:29:01;;;;;;;9.15;8.35;;;15.70;69.10;;;;;;5132234;27;20582;-58
2022/04/15 03:31:28;;;;;;;9.43;8.73;;;15.70;69.10;;;;;;5133319;27;20677;-59
2022/04/15 03:33:55;;;;;;;9.87;9.10;;;15.70;69.20;;;;;;5133516;27;20539;-58
2022/04/15 03:36:22;;;;;;;10.37;9.53;;;15.60;69.30;;;;;;5133266;27;20492;-58
2022/04/15 03:38:49;;;;;;;9.93;9.23;;;15.60;69.30;;;;;;5133458;27;20455;-58
2022/04/15 03:41:17;;;;;;;9.60;8.85;;;15.60;69.40;;;;;;5133530;27;20483;-58
2022/04/15 03:43:44;;;;;;;10.65;9.75;;;15.60;69.30;;;;;;5131909;27;20294;-59
2022/04/15 03:46:11;;;;;;;9.37;8.67;;;15.60;69.30;;;;;;5133207;27;20199;-58
2022/04/15 03:48:37;;;;;;;10.55;9.75;;;15.50;69.40;;;;;;5133329;27;20527;-58
2022/04/15 03:51:04;;;;;;;10.00;9.15;;;15.50;69.40;;;;;;5133118;27;20325;-59
2022/04/15 03:53:31;;;;;;;10.25;9.55;;;15.50;69.50;;;;;;5133254;27;20688;-59
2022/04/15 03:55:58;;;;;;;9.50;8.80;;;15.50;69.50;;;;;;5133218;27;20233;-58
2022/04/15 03:58:26;;;;;;;9.88;9.07;;;15.40;69.60;;;;;;5131862;27;20475;-59
2022/04/15 04:00:54;;;;;;;9.55;8.77;;;15.40;69.70;;;;;;5136693;27;20207;-59
2022/04/15 04:03:20;;;;;;;9.55;8.85;;;15.30;69.80;;;;;;5136905;27;20199;-58
2022/04/15 04:05:47;;;;;;;10.70;9.60;;;15.30;69.80;;;;;;5136840;27;20207;-58
2022/04/15 04:08:14;;;;;;;9.88;9.18;;;15.30;69.80;;;;;;5136933;27;20468;-59
2022/04/15 04:10:41;;;;;;;9.27;8.57;;;15.30;69.80;;;;;;5136790;27;20195;-59
2022/04/15 04:13:08;;;;;;;8.63;7.90;;;15.30;69.90;;;;;;5135176;27;20286;-58
2022/04/15 04:15:36;;;;;;;9.55;8.75;;;15.30;69.90;;;;;;5136667;27;20225;-58
2022/04/15 04:18:03;;;;;;;9.20;8.52;;;15.20;69.80;;;;;;5136607;27;20206;-58
2022/04/15 04:20:30;;;;;;;10.07;9.25;;;15.20;70.00;;;;;;5136616;27;20245;-58
2022/04/15 04:22:57;;;;;;;10.10;9.40;;;15.20;69.90;;;;;;5136579;27;20202;-59
2022/04/15 04:25:24;;;;;;;9.65;8.90;;;15.10;70.10;;;;;;5136471;27;20770;-59
2022/04/15 04:27:51;;;;;;;10.60;9.60;;;15.10;70.10;;;;;;5136313;27;20253;-59
2022/04/15 04:30:18;;;;;;;9.60;8.85;;;15.10;70.30;;;;;;5135068;27;20629;-59
2022/04/15 04:32:49;;;;;;;9.85;9.00;;;15.10;70.30;;;;;;5136600;27;20294;-59
2022/04/15 04:35:16;;;;;;;10.20;9.45;;;15.10;70.30;;;;;;5136240;27;20254;-59
2022/04/15 04:37:43;;;;;;;9.43;8.77;;;15.10;70.50;;;;;;5136335;27;20668;-59
2022/04/15 04:40:11;;;;;;;10.52;9.73;;;15.10;70.40;;;;;;5136223;27;20675;-59
2022/04/15 04:42:38;;;;;;;9.70;8.90;;;15.10;70.50;;;;;;5136063;27;20203;-59
2022/04/15 04:45:06;;;;;;;9.35;8.40;;;15.00;70.60;;;;;;5134882;27;20227;-58
2022/04/15 04:47:33;;;;;;;10.02;9.20;;;15.00;70.70;;;;;;5136069;27;20199;-59
2022/04/15 04:50:01;;;;;;;10.05;9.27;;;15.00;70.70;;;;;;5136017;27;20289;-59
2022/04/15 04:52:28;;;;;;;10.68;9.60;;;15.00;70.90;;;;;;5135883;27;20250;-60
2022/04/15 04:54:55;;;;;;;9.75;8.95;;;15.00;71.00;;;;;;5135896;27;20207;-59
2022/04/15 04:57:22;;;;;;;9.73;8.85;;;15.00;71.00;;;;;;5135729;27;20283;-59
2022/04/15 04:59:49;;;;;;;11.43;10.43;;;15.00;71.10;;;;;;5134686;27;20241;-59
2022/04/15 05:02:16;;;;;;;11.18;10.23;;;15.00;71.60;;;;;;5135894;27;20479;-58
2022/04/15 05:04:43;;;;;;;12.02;10.95;;;15.00;71.30;;;;;;5135713;27;20692;-59
2022/04/15 05:07:11;;;;;;;11.55;10.45;;;15.00;71.40;;;;;;5135807;27;20239;-58
2022/04/15 05:09:41;;;;;;;12.10;10.90;;;15.00;71.40;;;;;;5135565;27;20199;-59
2022/04/15 05:12:09;;;;;;;12.10;11.00;;;15.10;71.40;;;;;;5135555;27;20198;-58
2022/04/15 05:14:36;;;;;;;12.10;11.00;;;15.10;71.30;;;;;;5134226;27;20203;-59
2022/04/15 05:17:03;;;;;;;11.57;9.93;;;15.10;71.30;;;;;;5135331;27;20330;-59
2022/04/15 05:19:30;;;;;;;10.57;9.68;;;15.20;71.30;;;;;;5135555;27;20289;-59
2022/04/15 05:21:57;;;;;;;11.27;10.27;;;15.20;71.50;;;;;;5135380;27;20205;-59
2022/04/15 05:24:25;;;;;;;12.90;11.80;;;15.20;71.40;;;;;;5135320;27;20289;-59
2022/04/15 05:26:52;;;;;;;12.43;11.32;;;15.20;71.30;;;;;;5135152;27;20213;-58
2022/04/15 05:29:18;;;;;;;12.03;11.00;;;15.20;71.40;;;;;;5133935;27;20299;-59
2022/04/15 05:31:45;;;;;;;13.25;12.07;;;15.30;71.40;;;;;;5135192;27;20490;-58
2022/04/15 05:34:12;;;;;;;11.45;10.43;;;15.30;71.40;;;;;;5135163;27;20745;-58
2022/04/15 05:36:39;;;;;;;15.00;10.90;;;15.30;71.50;;;;;;5134937;27;20227;-58
2022/04/15 05:39:06;;;;;;;12.05;10.95;;;15.30;71.40;;;;;;5135114;27;20455;-58
2022/04/15 05:41:34;;;;;;;14.73;12.60;;;15.30;71.40;;;;;;5135039;27;20234;-59
2022/04/15 05:44:03;;;;;;;12.70;11.50;;;15.40;71.40;;;;;;5133533;27;20575;-59
2022/04/15 05:46:30;;;;;;;13.20;11.83;;;15.40;71.30;;;;;;5134894;27;20203;-58
2022/04/15 05:48:57;;;;;;;12.52;11.18;;;15.40;71.40;;;;;;5135060;27;20445;-59
2022/04/15 05:51:24;;;;;;;14.27;12.82;;;15.50;71.30;;;;;;5134637;27;20628;-59
2022/04/15 05:53:51;;;;;;;15.90;13.73;;;15.50;71.50;;;;;;5134798;27;20199;-59
2022/04/15 05:56:18;;;;;;;15.00;13.55;;;15.40;71.60;;;;;;5134689;27;20488;-58
2022/04/15 05:58:46;;;;;;;14.90;13.33;;;15.50;71.60;;;;;;5133305;27;20299;-58
2022/04/15 06:01:13;;;;;;;17.07;13.97;;;15.50;71.40;;;;;;5134603;27;20449;-59
2022/04/15 06:03:39;;;;;;;14.65;13.18;;;15.50;71.40;;;;;;5134642;27;20450;-58
2022/04/15 06:06:07;;;;;;;14.75;13.23;;;15.50;71.40;;;;;;5134439;27;20672;-59
2022/04/15 06:08:34;;;;;;;15.53;13.80;;;15.60;71.50;;;;;;5134504;27;20203;-59
2022/04/15 06:11:00;;;;;;;16.52;14.20;;;15.60;71.60;;;;;;5134491;27;20440;-59
2022/04/15 06:13:27;;;;;;;18.00;14.30;;;15.60;71.60;;;;;;5133006;27;20203;-58
2022/04/15 06:15:57;;;;;;;15.83;13.93;;;15.60;71.80;;;;;;5134400;27;20476;-59
2022/04/15 06:18:25;;;;;;;15.80;14.00;;;15.60;71.50;;;;;;5134251;27;20505;-59
2022/04/15 06:20:52;;;;;;;15.40;13.80;;;15.60;71.50;;;;;;5134332;27;20946;-59
2022/04/15 06:23:21;;;;;;;16.00;14.33;;;15.60;71.60;;;;;;5133806;27;20443;-58
2022/04/15 06:25:48;;;;;;;16.93;13.77;;;15.60;71.60;;;;;;5134228;27;20441;-59
2022/04/15 06:28:16;;;;;;;16.33;13.20;;;15.60;71.70;;;;;;5132844;27;20545;-59
2022/04/15 06:30:43;;;;;;;14.00;12.60;;;15.60;71.60;;;;;;5134114;27;20665;-58
2022/04/15 06:33:11;;;;;;;16.70;13.30;;;15.70;71.60;;;;;;5134002;27;20451;-59
2022/04/15 06:35:40;;;;;;;15.20;13.60;;;15.70;71.50;;;;;;5133981;27;20862;-58
2022/04/15 06:38:07;;;;;;;13.93;12.30;;;15.70;71.40;;;;;;5134119;27;20452;-59
2022/04/15 06:40:35;;;;;;;14.48;12.88;;;15.70;71.50;;;;;;5134078;27;20203;-59
2022/04/15 06:43:02;;;;;;;14.83;13.30;;;15.80;71.50;;;;;;5132793;27;20705;-58
2022/04/15 06:45:29;;;;;;;15.13;13.13;;;15.80;71.40;;;;;;5133795;27;20472;-59
2022/04/15 06:47:56;;;;;;;12.97;11.67;;;15.90;71.40;;;;;;5133855;27;20978;-59
2022/04/15 06:50:24;;;;;;;15.10;12.90;;;16.00;71.50;;;;;;5133962;27;20484;-59
2022/04/15 06:52:51;;;;;;;13.10;11.80;;;16.00;71.20;;;;;;5133723;27;20570;-59
2022/04/15 06:55:18;;;;;;;14.80;13.20;;;16.10;71.20;;;;;;5133849;27;20447;-59
2022/04/15 06:57:45;;;;;;;13.40;12.00;;;16.10;71.10;;;;;;5133576;27;20488;-58
2022/04/15 07:00:13;;;;;;;13.70;12.30;;;16.10;71.10;;;;;;5132269;27;20895;-59
2022/04/15 07:02:41;;;;;;;19.57;13.90;;;16.10;71.10;;;;;;5133805;27;20501;-59
2022/04/15 07:05:09;;;;;;;15.10;12.77;;;16.20;70.90;;;;;;5133852;27;20478;-59
2022/04/15 07:07:38;;;;;;;14.40;12.90;;;16.20;70.90;;;;;;5133859;27;20501;-59
2022/04/15 07:10:06;;;;;;;14.03;12.50;;;16.20;70.90;;;;;;5133626;27;20969;-59
2022/04/15 07:12:33;;;;;;;15.43;13.93;;;16.20;70.90;;;;;;5133500;27;20979;-59
2022/04/15 07:15:00;;;;;;;16.57;14.50;;;16.20;70.50;;;;;;5132461;27;20448;-59
2022/04/15 07:17:27;;;;;;;16.37;14.77;;;16.30;70.40;;;;;;5133574;27;20490;-59
2022/04/15 07:19:54;;;;;;;16.15;14.10;;;16.20;70.10;;;;;;5133630;27;20444;-58
2022/04/15 07:22:21;;;;;;;16.00;14.30;;;16.20;70.30;;;;;;5133567;27;20637;-58
2022/04/15 07:24:50;;;;;;;15.30;13.73;;;16.20;70.20;;;;;;5133639;27;20450;-59
2022/04/15 07:27:17;;;;;;;17.97;15.57;;;16.20;70.30;;;;;;5133385;27;20663;-58
2022/04/15 07:29:45;;;;;;;17.73;15.90;;;16.20;70.30;;;;;;5132286;27;20444;-59
2022/04/15 07:32:13;;;;;;;17.40;15.60;;;16.30;69.80;;;;;;5133655;27;20903;-59
2022/04/15 07:34:40;;;;;;;17.30;15.40;;;16.30;69.60;;;;;;5135467;27;20528;-59
2022/04/15 07:37:07;;;;;;;20.40;16.10;;;16.20;69.70;;;;;;5137599;27;20582;-59
2022/04/15 07:39:34;;;;;;;17.97;16.07;;;16.30;69.90;;;;;;5137489;27;20458;-59
2022/04/15 07:42:02;;;;;;;20.07;17.30;;;16.30;69.80;;;;;;5137195;27;20436;-59
2022/04/15 07:44:30;;;;;;;18.00;16.30;;;16.30;69.20;;;;;;5135877;27;20446;-59
2022/04/15 07:46:57;;;;;;;17.63;15.80;;;16.40;69.10;;;;;;5137411;27;20444;-59
2022/04/15 07:49:24;;;;;;;17.57;15.77;;;16.40;68.80;;;;;;5137238;27;20448;-59
2022/04/15 07:51:50;;;;;;;18.83;16.33;;;16.50;69.10;;;;;;5137008;27;20978;-59
2022/04/15 07:54:17;;;;;;;17.53;15.83;;;16.40;68.80;;;;;;5137070;27;20445;-59
2022/04/15 07:56:44;;;;;;;19.30;17.40;;;16.30;69.20;;;;;;5137008;27;20820;-59
2022/04/15 07:59:12;;;;;;;18.57;16.63;;;16.30;69.40;;;;;;5135694;27;20990;-59
2022/04/15 08:01:39;;;;;;;18.40;16.50;;;16.30;69.70;;;;;;5136972;27;20444;-59
2022/04/15 08:04:06;;;;;;;22.10;19.80;;;16.40;69.70;;;;;;5136996;27;20522;-61
2022/04/15 08:06:33;;;;;;;19.03;17.00;;;16.50;69.30;;;;;;5136902;27;20448;-58
2022/04/15 08:09:00;;;;;;;19.53;17.63;;;16.50;68.90;;;;;;5136682;27;20484;-59
2022/04/15 08:11:28;;;;;;;21.87;19.57;;;16.60;69.10;;;;;;5136784;27;20448;-58
2022/04/15 08:13:56;;;;;;;19.90;17.60;;;16.80;68.60;;;;;;5135335;27;20451;-59
2022/04/15 08:16:25;;;;;;;19.00;16.97;;;16.90;67.90;;;;;;5136699;27;20570;-59
2022/04/15 08:18:52;;;;;;;19.40;17.40;;;17.00;68.10;;;;;;5136852;27;20444;-59
2022/04/15 08:21:19;;;;;;;17.73;15.93;;;17.00;68.10;;;;;;5136501;27;20986;-59
2022/04/15 08:23:47;;;;;;;19.27;17.43;;;17.20;68.00;;;;;;5136463;27;20444;-59
2022/04/15 08:26:14;;;;;;;19.47;17.53;;;17.30;67.60;;;;;;5136562;27;20934;-59
2022/04/15 08:28:40;;;;;;;20.33;18.20;;;17.30;67.20;;;;;;5135050;27;20539;-59
2022/04/15 08:31:08;;;;;;;20.10;18.00;;;17.40;67.40;;;;;;5136296;27;20462;-58
2022/04/15 08:33:37;;;;;;;20.00;18.00;;;17.20;67.40;;;;;;5136296;27;20543;-58
2022/04/15 08:36:04;;;;;;;21.50;19.20;;;17.30;67.60;;;;;;5136255;27;20451;-58
2022/04/15 08:38:32;;;;;;;20.73;18.73;;;17.30;67.00;;;;;;5136289;27;20492;-58
2022/04/15 08:40:59;;;;;;;23.30;20.80;;;17.30;67.00;;;;;;5136238;27;20539;-58
2022/04/15 08:43:29;;;;;;;23.43;21.03;;;17.40;66.70;;;;;;5134577;27;20496;-58
2022/04/15 08:45:56;;;;;;;21.10;18.93;;;17.40;66.10;;;;;;5135868;27;20500;-58
2022/04/15 08:48:25;;;;;;;23.43;21.17;;;17.40;66.40;;;;;;5136125;27;20484;-59
2022/04/15 08:50:54;;;;;;;23.30;20.90;;;17.10;64.90;;;;;;5135777;27;20926;-58
2022/04/15 08:53:22;;;;;;;20.23;18.10;;;16.90;66.50;;;;;;5136080;27;20437;-58
2022/04/15 08:55:49;;;;;;;22.53;20.23;;;17.10;66.90;;;;;;5135996;27;20481;-58
2022/04/15 08:58:16;;;;;;;20.23;18.13;;;17.30;67.10;;;;;;5134317;27;20575;-59
2022/04/15 09:00:43;;;;;;;21.17;19.07;;;17.50;67.00;;;;;;5135909;27;20460;-58
2022/04/15 09:03:11;;;;;;;23.13;20.47;;;17.70;66.10;;;;;;5135776;27;20479;-58
2022/04/15 09:05:37;;;;;;;23.70;21.27;;;17.80;64.50;;;;;;5135778;27;20444;-58
2022/04/15 09:08:08;;;;;;;24.47;22.07;;;17.80;62.70;;;;;;5135677;27;20454;-58
2022/04/15 09:10:35;;;;;;;21.90;19.80;;;17.70;65.10;;;;;;5135643;27;20453;-58
2022/04/15 09:13:04;;;;;;;23.30;20.97;;;17.90;65.00;;;;;;5134615;27;20448;-58
2022/04/15 09:15:31;;;;;;;22.37;20.00;;;18.10;63.80;;;;;;5135549;27;20453;-60
2022/04/15 09:18:00;;;;;;;21.57;19.47;;;18.30;64.70;;;;;;5135266;27;20488;-58
2022/04/15 09:20:33;;;;;;;23.90;21.40;;;18.40;63.10;;;;;;5135536;27;20455;-59
2022/04/15 09:23:10;;;;;;;29.63;24.73;;;18.40;62.10;;;;;;5135359;27;20453;-58
2022/04/15 09:25:39;;;;;;;25.13;22.70;;;18.40;62.20;;;;;;5135330;27;20471;-59
2022/04/15 09:28:07;;;;;;;26.00;23.43;;;18.40;63.00;;;;;;5133847;27;20441;-59
2022/04/15 09:30:40;;;;;;;23.70;21.50;;;18.50;62.50;;;;;;5135130;27;20463;-58
2022/04/15 09:33:07;;;;;;;25.03;22.73;;;18.60;62.60;;;;;;5135101;27;20808;-59
2022/04/15 09:35:34;;;;;;;25.13;22.53;;;18.60;62.20;;;;;;5135179;27;20459;-59
2022/04/15 09:38:03;;;;;;;24.73;22.23;;;18.70;61.10;;;;;;5135069;27;20499;-59
2022/04/15 09:40:35;;;;;;;27.80;25.00;;;18.70;61.50;;;;;;5135040;27;20800;-58
2022/04/15 09:43:04;;;;;;;22.17;19.97;;;18.80;60.80;;;;;;5133808;27;20471;-58
2022/04/15 09:45:34;;;;;;;26.17;23.60;;;18.90;61.00;;;;;;5134914;27;20480;-58
2022/04/15 09:48:02;;;;;;;25.37;22.97;;;18.90;59.90;;;;;;5134933;27;20437;-58
2022/04/15 09:50:31;;;;;;;24.17;21.77;;;18.90;59.20;;;;;;5134806;27;20527;-58
2022/04/15 09:53:08;;;;;;;25.53;23.00;;;18.90;60.30;;;;;;5134609;27;20486;-58
2022/04/15 09:55:39;;;;;;;24.93;22.43;;;19.00;58.70;;;;;;5134675;27;20439;-58
2022/04/15 09:58:10;;;;;;;23.70;21.40;;;18.90;59.00;;;;;;5132433;27;20516;-59
2022/04/15 10:00:38;;;;;;;25.67;23.27;;;18.90;59.10;;;;;;5134572;27;20541;-59
2022/04/15 10:03:08;;;;;;;25.40;22.90;;;18.80;58.80;;;;;;5134595;27;20492;-58
2022/04/15 10:05:36;;;;;;;27.27;24.60;;;18.90;59.90;;;;;;5134566;27;20444;-59
2022/04/15 10:08:04;;;;;;;24.20;21.90;;;18.90;59.40;;;;;;5134448;27;20543;-58
2022/04/15 10:10:32;;;;;;;22.70;20.60;;;19.10;59.30;;;;;;5134450;27;20444;-58
2022/04/15 10:13:03;;;;;;;21.83;19.93;;;19.20;58.10;;;;;;5134052;27;20444;-59
2022/04/15 10:15:32;;;;;;;22.90;20.70;;;19.40;58.40;;;;;;5134438;27;20448;-59
2022/04/15 10:18:00;;;;;;;21.30;19.30;;;19.40;57.50;;;;;;5134312;27;20840;-59
2022/04/15 10:20:27;;;;;;;22.07;20.17;;;19.50;57.10;;;;;;5134099;27;20800;-58
2022/04/15 10:22:56;;;;;;;22.47;20.30;;;19.40;57.40;;;;;;5134375;27;20445;-59
2022/04/15 10:25:23;;;;;;;23.03;21.03;;;19.40;57.50;;;;;;5134288;27;20493;-58
2022/04/15 10:27:51;;;;;;;22.53;20.37;;;19.50;57.50;;;;;;5134150;27;20444;-58
2022/04/15 10:30:22;;;;;;;20.97;19.17;;;19.70;56.60;;;;;;5132723;27;20949;-59
2022/04/15 10:32:50;;;;;;;19.00;17.30;;;19.80;55.30;;;;;;5134035;27;20440;-59
2022/04/15 10:35:26;;;;;;;21.70;19.77;;;19.80;55.40;;;;;;5134291;27;20441;-59
2022/04/15 10:38:00;;;;;;;21.57;19.77;;;19.90;56.10;;;;;;5134122;27;21065;-59
2022/04/15 10:40:30;;;;;;;18.33;16.77;;;20.10;56.00;;;;;;5133925;27;20493;-59
2022/04/15 10:43:05;;;;;;;19.80;17.93;;;20.10;56.60;;;;;;5133794;27;20460;-58
2022/04/15 10:45:38;;;;;;;23.00;20.97;;;20.30;56.10;;;;;;5133813;27;20926;-58
2022/04/15 10:48:06;;;;;;;19.23;17.70;;;20.20;55.90;;;;;;5133847;27;20822;-59
2022/04/15 10:50:35;;;;;;;19.23;17.57;;;20.20;56.60;;;;;;5133912;27;20523;-58
2022/04/15 10:53:29;;;;;;;21.90;19.90;;;20.30;57.00;;;;;;5133925;27;20450;-58
2022/04/15 10:56:07;;;;;;;21.30;19.50;;;20.40;55.50;;;;;;5133659;27;20536;-59
2022/04/15 11:01:13;;;;;;;21.07;19.00;;;20.40;54.80;;;;;;5132285;27;20993;-59
2022/04/15 11:01:34;;;;;;;19.20;17.43;;;20.40;54.70;;;;;;5133551;27;20447;-59
2022/04/15 11:04:05;;;;;;;17.30;15.80;;;20.30;52.40;;;;;;5133865;27;20442;-59
2022/04/15 11:06:32;;;;;;;17.13;15.63;;;20.10;54.10;;;;;;5133665;27;20448;-59
2022/04/15 11:09:14;;;;;;;18.27;16.67;;;20.10;53.40;;;;;;5136498;27;20518;-59
2022/04/15 11:11:42;;;;;;;17.07;15.70;;;20.10;53.30;;;;;;5137892;27;20934;-60
2022/04/15 11:14:13;;;;;;;18.07;16.57;;;20.10;52.50;;;;;;5136418;27;20441;-59
2022/04/15 11:16:48;;;;;;;18.87;17.23;;;19.90;53.10;;;;;;5137745;27;20962;-58
2022/04/15 11:19:19;;;;;;;17.13;15.73;;;19.90;53.90;;;;;;5137730;27;20845;-59
2022/04/15 11:21:50;;;;;;;17.43;15.93;;;20.10;53.30;;;;;;5137783;27;20440;-59
2022/04/15 11:24:23;;;;;;;17.90;16.50;;;20.30;52.80;;;;;;5137761;27;20869;-59
2022/04/15 11:26:50;;;;;;;18.97;17.17;;;21.00;51.00;;;;;;5137715;27;20441;-58
2022/04/15 11:29:17;;;;;;;17.63;16.13;;;21.70;49.40;;;;;;5136012;27;20531;-57
2022/04/15 11:31:46;;;;;;;17.90;16.50;;;22.50;49.30;;;;;;5137565;27;20479;-57
2022/04/15 11:34:16;;;;;;;17.80;16.40;;;23.10;46.90;;;;;;5137596;27;20445;-57
2022/04/15 11:36:44;;;;;;;18.57;17.00;;;23.40;45.30;;;;;;5137504;27;20536;-57
2022/04/15 11:39:13;;;;;;;16.50;15.10;;;24.00;45.70;;;;;;5137412;27;20487;-56
2022/04/15 11:41:44;;;;;;;18.30;16.80;;;24.50;45.30;;;;;;5137303;27;20474;-57
2022/04/15 11:44:12;;;;;;;18.20;16.70;;;24.90;45.20;;;;;;5135940;27;20440;-57
2022/04/15 11:46:45;;;;;;;18.63;17.07;;;24.60;45.10;;;;;;5137270;27;20888;-57
2022/04/15 11:49:13;;;;;;;19.37;17.57;;;24.30;44.40;;;;;;5137248;27;20432;-57
2022/04/15 11:51:43;;;;;;;19.87;18.20;;;23.90;45.10;;;;;;5137077;27;20571;-59
2022/04/15 11:54:10;;;;;;;17.40;16.00;;;23.60;45.80;;;;;;5137165;27;20444;-57
2022/04/15 11:56:36;;;;;;;19.13;17.50;;;23.90;46.80;;;;;;5137083;27;20531;-57
2022/04/15 11:59:04;;;;;;;18.47;16.97;;;24.30;45.10;;;;;;5135362;27;20487;-58
2022/04/15 12:01:32;;;;;;;18.47;16.87;;;24.60;45.30;;;;;;5137021;27;20452;-56
2022/04/15 12:04:01;;;;;;;16.23;15.07;;;24.80;43.80;;;;;;5137074;27;20446;-58
2022/04/15 12:06:29;;;;;;;16.57;15.30;;;24.60;44.40;;;;;;5136917;27;20995;-57
2022/04/15 12:08:57;;;;;;;15.87;14.57;;;24.50;40.90;;;;;;5136744;27;20517;-56
2022/04/15 12:11:25;;;;;;;15.30;14.20;;;24.40;40.30;;;;;;5136867;27;20445;-57
2022/04/15 12:13:58;;;;;;;14.00;12.90;;;24.40;41.10;;;;;;5135351;27;20448;-57
2022/04/15 12:16:25;;;;;;;14.27;13.17;;;24.20;40.40;;;;;;5136796;27;20504;-57
2022/04/15 12:18:53;;;;;;;13.97;12.97;;;23.90;40.20;;;;;;5136598;27;20487;-58
2022/04/15 12:21:22;;;;;;;18.10;16.53;;;23.70;42.50;;;;;;5135772;27;20451;-58
2022/04/15 12:24:09;;;;;;;16.40;15.10;;;23.60;41.50;;;;;;5136648;27;20440;-58
2022/04/15 12:26:44;;;;;;;16.97;15.60;;;23.70;42.10;;;;;;5136545;27;20489;-58
2022/04/15 12:32:14;;;;;;;18.40;16.90;;;23.50;43.70;;;;;;5136350;27;20435;-58
2022/04/15 12:34:42;;;;;;;17.97;16.27;;;23.10;43.10;;;;;;5136353;27;20444;-59
2022/04/15 12:37:34;;;;;;;19.73;18.00;;;22.80;44.50;;;;;;5136410;27;20512;-59
2022/04/15 12:40:01;;;;;;;19.00;17.33;;;22.60;45.40;;;;;;5136152;27;20448;-58
2022/04/15 12:42:29;;;;;;;16.13;14.77;;;22.40;46.50;;;;;;5136169;27;20484;-59